Airfield :
LOGIN :

Register | Disclaimer

   EN    FR    IT 

 










Legend :    VFR   Marginal VFR   IFR   Intensive IFR   Very Intensive IFR
Visi :
Ceiling :
>= 8 km
>= 3000ft
5 to 8 km
1000 to 3000 ft
1500m to 5 km
500 to 1000 ft
800 to 1500m
200 to 500 ft
< 800m
< 200 ft
Symbols :   Thunderstorms  Fog  Heavy snow  Heavy precipitations  Wind > 20 kt
SIGMETs :     Misc.  Thunderstorms  Icing  Turbulence  Mountain Waves  Volcanic Ashes






- Airport Elevation : 416 ft
- IATA code : OVD


LEAS - Asturias

CURRENT METAR :
  • 270730Z VRB05KT 5000 RA FEW002 SCT006 BKN015 10/10 Q1015 TEMPO 3000

EXPIRED METARs :
  • 270700Z 27005KT 220V310 5000 RA FEW002 SCT006 BKN015 11/10 Q1015 TEMPO 3000
  • 270639Z 00000KT 5000 RA FEW003 BKN006 11/10 Q1015 TEMPO 3000
  • 270600Z VRB02KT 9999 -RA SCT010 BKN055 11/10 Q1014 NOSIG
  • 270530Z VRB01KT 9999 -RA BKN055 11/09 Q1014 NOSIG
  • 270500Z 02004KT 320V090 9999 BKN055 12/09 Q1014 NOSIG
  • 270430Z AUTO 34006KT 300V020 9999 SCT060 BKN077 13/06 Q1014

TAF TAF LEAS
Valid from the 27 at 03:00 until the 28 at 03:00 UTC


270200Z 2703/2803 24009KT 9999 FEW030 TX14/2714Z TN08/2705Z
TEMPO 2705/2712 30010KT 3000 RA -SHRA BKN010 BKN020TCU
PROB40
TEMPO 2718/2724 29015G25KT 3000 RA BKN010



MET'MAP, your aeronautical weather chart ! - Copyright ORBIFLY December 2007 - Disclaimer

ORBIFLY MET'MAP TEAM :

Programming & Development : Alexandra Zaïnal
Concept & original design : Baudouin d'Aumeries
Assistance for programming : Marc-Olivier Méhu
Technical & hardware support : Manuel Goepfert

Contact : metmap@orbifly.com




SOURCES & CREDITS :

   NOAA